Weerspreuk van de dag: Is het weer in Mei te mooi, dan krijgt de schuur maar weinig hooi.
Het weer levert geen direct gevaar op.    Er zijn geen waarschuwingen afgegeven.


Onweer radar Meer informatie blitzortung!


Regen radar Meer informatie rain snow radar


Bekijk deze sites ook eens:

FPL Automotive (TIP)

Autostekkers.nl (TIP)

Over Luyksgestel

De Kempen, mijn omgeving

BOL.com

Weerstation Noordbergum

Inktweb

Weerstation Hapert

Weerstation Hoogeloon

Weerstation Son&Breugel

Weerstation Castaert

Smartphonehoesjes

Weerstation Tilburg Reeshof

Weerstation Scheulder

Weerverwachting Samos

Samos actueel

Weerwoord (forum)

Griekenlandforum

Vakantie naar Samos

Zomerzon

Canon

Beleef de lente

Wolven in Nederland



METAR rapporten vliegvelden

   
EBAW - Antwerp
Gewijzigd: 20-05-2019 02:50
Nevel, Bewolking  
Nevel, Bewolking  
   Wind: Noorden 9.3 km/h
Wind: Noorden 9.3 km/h
Temperatuur: 12°C
Dauwpunt: 11°C
Vochtigheid: 94%
Barometer: 1007 hPa
Bewolking: Bewolking
Zicht: 2 km
Bewolking: Grotendeels bewolkt 300 ft,
Bewolking 400 ft
EBAW 200050Z AUTO 35005KT 320V020 2300 BR BKN003/// OVC004/// 12/11 Q1007
EBLG - Liège
Gewijzigd: 20-05-2019 02:50
Mist, Grotendeels bewolkt  
Mist, Grotendeels bewolkt  
   Wind: WNW 9.3 km/h
Wind: WNW 9.3 km/h
Temperatuur: 12°C
Dauwpunt: 11°C
Vochtigheid: 94%
Barometer: 1007 hPa
Bewolking: Grotendeels bewolkt
Zicht: 0 km
Bewolking: Grotendeels bewolkt 100 ft,
Grotendeels bewolkt 200 ft
EBLG 200050Z 30005KT 270V330 0250 R22L/0600N R22R/0550N R04R/0500N FG BKN001 BKN002 12/11 Q1007 REDZ TEMPO BKN002
EBCV - Mons/Bergen
Gewijzigd: 20-05-2019 02:25
Nevel, Bewolking  
Nevel, Bewolking  
   Wind: NNW 14.8 km/h
Wind: NNW 14.8 km/h
Temperatuur: 11°C
Dauwpunt: 11°C
Vochtigheid: 100%
Barometer: 1008 hPa
Bewolking: Bewolking
Zicht: 2 km
Bewolking: Bewolking 200 ft
EBCV 200025Z AUTO 33008KT 1600 BR OVC002/// 11/11 Q1008 AMB
EHBK - Maastricht
Gewijzigd: 20-05-2019 02:55
Nevel, Bewolking  
Nevel, Bewolking  
   Wind: NW 9.3 km/h
Wind: NW 9.3 km/h
Temperatuur: 12°C
Dauwpunt: 12°C
Vochtigheid: 100%
Barometer: 1006 hPa
Bewolking: Bewolking
Zicht: 2 km
Bewolking: Grotendeels bewolkt 100 ft,
Bewolking 200 ft
EHBK 200055Z AUTO 31005KT 260V350 1800 BR BKN001 OVC002 12/12 Q1006
ELLX - Luxemburg
Gewijzigd: 20-05-2019 02:50
Bewolking  
Bewolking  
   Wind: Noorden 13 km/h
Wind: Noorden 13 km/h
Temperatuur: 12°C
Dauwpunt: 11°C
Vochtigheid: 94%
Barometer: 1005 hPa
Bewolking: Bewolking
Zicht: meer dan 10 km
Bewolking: Bewolking 8400 ft
ELLX 200050Z AUTO 36007KT 9999 OVC084/// 12/11 Q1005 NOSIG
EBOS - Oostende
Gewijzigd: 20-05-2019 02:50
Grotendeels bewolkt  
Grotendeels bewolkt  
   Wind: Noorden 18.5 km/h
Wind: Noorden 18.5 km/h
Temperatuur: 11°C
Dauwpunt: 8°C
Vochtigheid: 82%
Barometer: 1009 hPa
Bewolking: Grotendeels bewolkt
Zicht: meer dan 10 km
Bewolking: Grotendeels bewolkt 900 ft,
Grotendeels bewolkt 4000 ft
EBOS 200050Z 35010KT 9999 BKN009 BKN040 11/08 Q1009 NOSIG

Script ontwikkeld door  Saratoga-weather.org Aangepast voor de template door  Weerstation Leuven

U vindt ons ook hier:

Het Weer Aktueel

UK Metoffice

European Weather Network

Weather Underground

AWEKAS



Lekker winkelen zonder zorgen - Gratis verzending en retour